Time;durP1;ratioP1;P1;durP2;ratioP2;P2;SDS_P1;SDS_P2;PMS_P1;PMS_P2;Temp;Humidity;BMP_temperature;BMP_pressure;BME280_temperature;BME280_humidity;BME280_pressure;Samples;Min_cycle;Max_cycle;Signal;HPM_P1;HPM_P2
2022/07/31 00:00:22;;;;;;;;;;;;;;;19.85;61.79;98871.03;5034734;27;102832;-74
2022/07/31 00:02:50;;;;;;;;;;;;;;;19.85;61.58;98885.31;5025865;27;104808;-73
2022/07/31 00:05:18;;;;;;;;;;;;;;;19.75;61.89;98875.75;5035661;27;103817;-73
2022/07/31 00:07:47;;;;;;;;;;;;;;;19.63;62.60;98872.53;5031331;27;103058;-73
2022/07/31 00:10:17;;;;;;;;;;;;;;;19.29;62.81;98883.25;5029990;27;102789;-74
2022/07/31 00:12:45;;;;;;;;;;;;;;;19.21;63.49;98883.22;5027655;27;102843;-73
2022/07/31 00:15:12;;;;;;;;;;;;;;;19.05;63.29;98881.31;5034140;27;103142;-72
2022/07/31 00:17:40;;;;;;;;;;;;;;;19.00;64.10;98870.22;5044237;27;103227;-73
2022/07/31 00:20:12;;;;;;;;;;;;;;;18.64;65.14;98871.38;5036018;27;102695;-72
2022/07/31 00:22:39;;;;;;;;;;;;;;;18.77;64.63;98884.34;5039774;27;102969;-73
2022/07/31 00:25:11;;;;;;;;;;;;;;;18.74;64.71;98877.47;5032215;27;103188;-74
2022/07/31 00:27:39;;;;;;;;;;;;;;;18.76;64.76;98875.47;5036179;27;102971;-73
2022/07/31 00:30:07;;;;;;;;;;;;;;;18.82;64.87;98877.50;5033126;27;102954;-73
2022/07/31 00:32:35;;;;;;;;;;;;;;;18.89;64.76;98873.19;5037563;27;104213;-73
2022/07/31 00:35:03;;;;;;;;;;;;;;;18.92;64.93;98870.19;5034316;27;103410;-73
2022/07/31 00:37:31;;;;;;;;;;;;;;;19.04;64.59;98873.44;5038023;27;103124;-74
2022/07/31 00:39:59;;;;;;;;;;;;;;;19.14;64.44;98867.97;5033764;27;102815;-73
2022/07/31 00:42:28;;;;;;;;;;;;;;;19.19;64.67;98871.00;5031052;27;104463;-73
2022/07/31 00:44:56;;;;;;;;;;;;;;;19.25;64.28;98873.03;5025836;27;104083;-73
2022/07/31 00:47:26;;;;;;;;;;;;;;;19.25;65.18;98873.88;5033662;27;103186;-73
2022/07/31 00:49:55;;;;;;;;;;;;;;;19.19;64.63;98868.31;5036140;27;103322;-74
2022/07/31 00:52:24;;;;;;;;;;;;;;;19.15;65.09;98869.63;5029619;27;102862;-73
2022/07/31 00:54:51;;;;;;;;;;;;;;;18.95;66.18;98869.88;5032759;27;103827;-73
2022/07/31 00:57:19;;;;;;;;;;;;;;;18.94;66.13;98867.38;5047084;27;103261;-74
2022/07/31 00:59:48;;;;;;;;;;;;;;;18.91;66.30;98873.03;5030773;27;102642;-73
2022/07/31 01:02:16;;;;;;;;;;;;;;;18.69;67.44;98877.09;5033308;27;102688;-75
2022/07/31 01:04:45;;;;;;;;;;;;;;;18.73;67.55;98880.28;5041692;27;103178;-74
2022/07/31 01:07:13;;;;;;;;;;;;;;;18.46;68.01;98883.94;5037450;27;103388;-74
2022/07/31 01:09:41;;;;;;;;;;;;;;;18.40;67.69;98876.53;5035029;27;102870;-73
2022/07/31 01:12:12;;;;;;;;;;;;;;;18.27;67.99;98878.78;5034345;27;102785;-74
2022/07/31 01:14:43;;;;;;;;;;;;;;;18.26;68.09;98882.44;5036412;27;103185;-74
2022/07/31 01:17:13;;;;;;;;;;;;;;;18.31;68.12;98878.28;5034328;27;105497;-74
2022/07/31 01:19:43;;;;;;;;;;;;;;;18.09;69.30;98886.78;5030368;27;102863;-75
2022/07/31 01:22:24;;;;;;;;;;;;;;;18.24;69.12;98879.06;5037879;27;104009;-76
2022/07/31 01:25:05;;;;;;;;;;;;;;;18.30;68.95;98873.94;5033257;27;103279;-76
2022/07/31 01:28:02;;;;;;;;;;;;;;;18.48;67.23;98876.59;5036844;27;103072;-73
2022/07/31 01:30:45;;;;;;;;;;;;;;;18.46;67.61;98875.91;5035459;27;102553;-74
2022/07/31 01:33:15;;;;;;;;;;;;;;;18.50;67.85;98879.97;5045054;27;102656;-74
2022/07/31 01:35:45;;;;;;;;;;;;;;;18.44;68.96;98885.94;5032904;27;103409;-72
2022/07/31 01:38:15;;;;;;;;;;;;;;;18.23;70.02;98885.41;5035224;27;103079;-76
2022/07/31 01:40:45;;;;;;;;;;;;;;;18.05;71.13;98880.06;5032735;27;103758;-74
2022/07/31 01:43:16;;;;;;;;;;;;;;;18.02;71.35;98882.22;5030097;27;103003;-74
2022/07/31 01:45:47;;;;;;;;;;;;;;;17.86;72.16;98875.72;5034556;27;103584;-74
2022/07/31 01:48:16;;;;;;;;;;;;;;;17.82;72.84;98877.00;5029646;27;102885;-76
2022/07/31 01:50:44;;;;;;;;;;;;;;;17.89;71.97;98880.75;5033152;27;102779;-74
2022/07/31 01:53:13;;;;;;;;;;;;;;;17.96;71.46;98879.16;5036360;27;102783;-75
2022/07/31 01:55:42;;;;;;;;;;;;;;;17.93;71.86;98883.97;5035242;27;103286;-75
2022/07/31 01:58:33;;;;;;;;;;;;;;;17.91;71.57;98877.94;5029520;27;104196;-75
2022/07/31 02:01:07;;;;;;;;;;;;;;;17.85;72.50;98879.38;5034826;27;102681;-74
2022/07/31 02:03:38;;;;;;;;;;;;;;;17.75;73.40;98875.09;5042818;27;103164;-74
2022/07/31 02:06:14;;;;;;;;;;;;;;;17.80;72.43;98880.81;5028915;27;105148;-74
2022/07/31 02:08:43;;;;;;;;;;;;;;;17.78;72.60;98882.81;5033389;27;103689;-75
2022/07/31 02:11:14;;;;;;;;;;;;;;;17.76;72.85;98877.63;5037857;27;102647;-75
2022/07/31 02:13:43;;;;;;;;;;;;;;;17.82;72.21;98870.84;5031648;27;102831;-74
2022/07/31 02:16:13;;;;;;;;;;;;;;;17.78;72.06;98872.97;5042144;27;104086;-74
2022/07/31 02:18:41;;;;;;;;;;;;;;;17.78;71.96;98875.66;5036393;27;104218;-74
2022/07/31 02:21:15;;;;;;;;;;;;;;;17.79;71.70;98879.16;5034139;27;102595;-74
2022/07/31 02:23:44;;;;;;;;;;;;;;;17.75;72.47;98870.59;5032586;27;102612;-75
2022/07/31 02:26:14;;;;;;;;;;;;;;;17.70;72.75;98875.56;5052839;27;105214;-74
2022/07/31 02:28:43;;;;;;;;;;;;;;;17.68;72.79;98866.88;5053463;27;103042;-74
2022/07/31 02:31:12;;;;;;;;;;;;;;;17.69;72.15;98867.69;5031208;27;103556;-74
2022/07/31 02:33:42;;;;;;;;;;;;;;;17.63;72.66;98869.13;5033981;27;103828;-74
2022/07/31 02:36:13;;;;;;;;;;;;;;;17.63;72.74;98869.13;5028292;27;104317;-73
2022/07/31 02:38:41;;;;;;;;;;;;;;;17.58;73.10;98866.06;5050715;27;103068;-73
2022/07/31 02:41:10;;;;;;;;;;;;;;;17.48;74.04;98870.63;5035792;27;103164;-75
2022/07/31 02:43:38;;;;;;;;;;;;;;;17.46;73.69;98864.56;5048696;27;103969;-73
2022/07/31 02:46:27;;;;;;;;;;;;;;;17.47;74.13;98866.25;5037460;27;104073;-74
2022/07/31 02:48:56;;;;;;;;;;;;;;;17.51;72.85;98862.31;5034624;27;103129;-74
2022/07/31 02:51:24;;;;;;;;;;;;;;;17.53;73.20;98862.16;5032995;27;102871;-73
2022/07/31 02:53:53;;;;;;;;;;;;;;;17.52;72.60;98861.31;5028206;27;104076;-74
2022/07/31 02:56:24;;;;;;;;;;;;;;;17.46;74.04;98861.09;5033934;27;103131;-75
2022/07/31 02:58:53;;;;;;;;;;;;;;;17.44;73.39;98860.38;5036759;27;103157;-73
2022/07/31 03:01:26;;;;;;;;;;;;;;;17.39;74.07;98861.69;5030249;27;102726;-73
2022/07/31 03:03:57;;;;;;;;;;;;;;;17.35;74.71;98864.78;5036078;27;104014;-73
2022/07/31 03:06:27;;;;;;;;;;;;;;;17.30;74.47;98864.38;5033125;27;105054;-74
2022/07/31 03:08:55;;;;;;;;;;;;;;;17.29;74.08;98860.06;5037247;27;103158;-75
2022/07/31 03:11:24;;;;;;;;;;;;;;;17.33;73.81;98861.44;5045316;27;102819;-75
2022/07/31 03:13:53;;;;;;;;;;;;;;;17.38;72.67;98859.13;5039084;27;104249;-76
2022/07/31 03:16:22;;;;;;;;;;;;;;;17.33;74.34;98867.59;5028056;27;103024;-75
2022/07/31 03:18:50;;;;;;;;;;;;;;;17.31;74.18;98868.75;5032624;27;103104;-75
2022/07/31 03:21:20;;;;;;;;;;;;;;;17.28;74.03;98874.38;5030995;27;102612;-76
2022/07/31 03:23:47;;;;;;;;;;;;;;;17.19;75.00;98864.59;5031168;27;102568;-76
2022/07/31 03:26:20;;;;;;;;;;;;;;;17.17;75.00;98862.09;5029920;27;103136;-74
2022/07/31 03:28:48;;;;;;;;;;;;;;;17.16;75.02;98864.88;5027667;27;104479;-75
2022/07/31 03:31:16;;;;;;;;;;;;;;;17.00;76.18;98870.03;5042113;27;102942;-75
2022/07/31 03:33:43;;;;;;;;;;;;;;;16.94;77.08;98862.59;5034360;27;103104;-77
2022/07/31 03:36:13;;;;;;;;;;;;;;;16.96;76.02;98863.28;5033579;27;104165;-76
2022/07/31 03:38:42;;;;;;;;;;;;;;;16.95;75.60;98856.28;5036392;27;103104;-75
2022/07/31 03:41:33;;;;;;;;;;;;;;;16.78;76.99;98858.75;5033130;27;102789;-75
2022/07/31 03:44:02;;;;;;;;;;;;;;;16.80;77.01;98859.44;5042321;27;102741;-74
2022/07/31 03:46:36;;;;;;;;;;;;;;;16.86;76.29;98858.00;5026871;27;104120;-75
2022/07/31 03:49:04;;;;;;;;;;;;;;;16.87;76.06;98858.84;5035094;27;103727;-75
2022/07/31 03:51:33;;;;;;;;;;;;;;;16.87;75.87;98866.84;5035594;27;103619;-74
2022/07/31 03:54:03;;;;;;;;;;;;;;;16.87;75.82;98874.88;5041132;27;104179;-77
2022/07/31 03:56:43;;;;;;;;;;;;;;;16.88;75.88;98874.69;5038377;27;103899;-75
2022/07/31 03:59:14;;;;;;;;;;;;;;;16.91;75.19;98873.56;5035064;27;103597;-75
2022/07/31 04:01:43;;;;;;;;;;;;;;;16.99;74.88;98873.66;5038495;27;102658;-75
2022/07/31 04:04:57;;;;;;;;;;;;;;;17.04;73.84;98877.56;5027148;27;102787;-75
2022/07/31 04:07:25;;;;;;;;;;;;;;;17.01;74.73;98869.88;5050898;27;105397;-77
2022/07/31 04:09:55;;;;;;;;;;;;;;;16.96;75.45;98874.81;5040048;27;103292;-75
2022/07/31 04:12:22;;;;;;;;;;;;;;;17.02;75.20;98873.38;5035748;27;102527;-74
2022/07/31 04:14:50;;;;;;;;;;;;;;;17.06;74.65;98872.97;5035664;27;103478;-75
2022/07/31 04:17:19;;;;;;;;;;;;;;;17.00;75.45;98872.69;5037449;27;103165;-77
2022/07/31 04:19:48;;;;;;;;;;;;;;;16.93;75.78;98874.25;5035620;27;103557;-75
2022/07/31 04:22:16;;;;;;;;;;;;;;;16.83;76.88;98874.31;5044381;27;102599;-76
2022/07/31 04:24:44;;;;;;;;;;;;;;;16.81;76.28;98860.28;5032208;27;104132;-77
2022/07/31 04:27:36;;;;;;;;;;;;;;;16.98;74.33;98872.00;5025354;27;103983;-75
2022/07/31 04:30:15;;;;;;;;;;;;;;;17.07;75.29;98871.94;5037736;27;103189;-76
2022/07/31 04:32:43;;;;;;;;;;;;;;;17.06;75.93;98869.44;5030192;27;103012;-76
2022/07/31 04:35:14;;;;;;;;;;;;;;;16.94;76.59;98866.13;5041650;27;102950;-76
2022/07/31 04:37:42;;;;;;;;;;;;;;;16.81;77.94;98870.94;5028159;27;104163;-76
2022/07/31 04:40:15;;;;;;;;;;;;;;;17.01;77.15;98875.19;5035736;27;103201;-75
2022/07/31 04:42:44;;;;;;;;;;;;;;;17.03;77.06;98875.06;5033467;27;103047;-77
2022/07/31 04:45:12;;;;;;;;;;;;;;;17.13;77.36;98878.53;5032852;27;104162;-77
2022/07/31 04:47:42;;;;;;;;;;;;;;;17.14;77.97;98888.22;5031672;27;105605;-79
2022/07/31 04:50:10;;;;;;;;;;;;;;;17.18;78.44;98884.25;5035412;27;105705;-85
2022/07/31 04:52:54;;;;;;;;;;;;;;;17.41;77.91;98888.22;5043671;27;103406;-82
2022/07/31 04:55:23;;;;;;;;;;;;;;;17.52;77.89;98888.00;5047324;27;104107;-88
2022/07/31 04:57:52;;;;;;;;;;;;;;;17.80;75.69;98892.34;5035283;27;103358;-82
2022/07/31 05:00:20;;;;;;;;;;;;;;;18.03;75.15;98889.22;5032491;27;103199;-76
2022/07/31 05:02:50;;;;;;;;;;;;;;;18.23;73.88;98893.44;5038350;27;103362;-77
2022/07/31 05:05:18;;;;;;;;;;;;;;;18.39;73.23;98888.19;5034710;27;102689;-88
2022/07/31 05:07:47;;;;;;;;;;;;;;;18.50;73.25;98890.66;5038471;27;105280;-82
2022/07/31 05:13:15;;;;;;;;;;;;;;;18.84;73.10;98891.56;5000226;27;103686;-75
2022/07/31 05:15:43;;;;;;;;;;;;;;;18.96;74.30;98894.81;5035451;27;102756;-74
2022/07/31 05:18:11;;;;;;;;;;;;;;;19.08;75.22;98885.53;5030990;27;103756;-79
2022/07/31 05:20:42;;;;;;;;;;;;;;;19.24;74.63;98885.59;5034029;27;103043;-77
2022/07/31 05:23:29;;;;;;;;;;;;;;;19.26;74.88;98878.22;5036633;27;102642;-78
2022/07/31 05:26:23;;;;;;;;;;;;;;;19.35;75.13;98876.41;5027064;27;103074;-78
2022/07/31 05:28:53;;;;;;;;;;;;;;;19.36;75.17;98878.09;5034075;27;103274;-78
2022/07/31 05:31:27;;;;;;;;;;;;;;;19.39;74.34;98872.47;5034422;27;105566;-78
2022/07/31 05:33:57;;;;;;;;;;;;;;;19.41;72.85;98878.47;5041709;27;103683;-79
2022/07/31 05:36:25;;;;;;;;;;;;;;;19.50;73.29;98881.03;5036070;27;102813;-81
2022/07/31 05:38:53;;;;;;;;;;;;;;;19.58;72.17;98877.53;5038728;27;103455;-81
2022/07/31 05:41:47;;;;;;;;;;;;;;;19.61;71.48;98879.91;5033428;27;103204;-79
2022/07/31 05:44:16;;;;;;;;;;;;;;;19.72;71.19;98882.28;5031304;27;103262;-74
2022/07/31 05:46:46;;;;;;;;;;;;;;;19.77;71.43;98887.97;5040896;27;102641;-74
2022/07/31 05:49:14;;;;;;;;;;;;;;;19.81;70.39;98888.47;4994920;27;103269;-73
2022/07/31 05:51:52;;;;;;;;;;;;;;;19.98;70.06;98880.31;5009497;27;103062;-74
2022/07/31 05:54:22;;;;;;;;;;;;;;;20.00;69.37;98894.38;5014500;27;103111;-74
2022/07/31 05:57:08;;;;;;;;;;;;;;;20.19;68.80;98888.69;5012640;28;102603;-74
2022/07/31 05:59:42;;;;;;;;;;;;;;;20.28;70.60;98883.38;5016579;28;103897;-74
2022/07/31 06:02:10;;;;;;;;;;;;;;;20.33;69.09;98883.69;5010363;27;103378;-74
2022/07/31 06:04:54;;;;;;;;;;;;;;;20.46;69.35;98884.88;5032181;27;102886;-74
2022/07/31 06:07:22;;;;;;;;;;;;;;;20.47;67.81;98885.69;5028204;27;104071;-74
2022/07/31 06:09:51;;;;;;;;;;;;;;;20.66;68.84;98890.75;5032884;27;104205;-74
2022/07/31 06:12:19;;;;;;;;;;;;;;;20.64;67.21;98887.38;5029860;27;102980;-74
2022/07/31 06:14:48;;;;;;;;;;;;;;;20.78;67.82;98892.03;5040792;27;102656;-75
2022/07/31 06:17:34;;;;;;;;;;;;;;;20.86;67.00;98891.19;5033521;27;103837;-74
2022/07/31 06:20:23;;;;;;;;;;;;;;;20.89;67.45;98901.56;5031180;27;105181;-74
2022/07/31 06:22:51;;;;;;;;;;;;;;;21.05;66.81;98901.56;5024655;27;105642;-74
2022/07/31 06:25:24;;;;;;;;;;;;;;;21.05;66.71;98899.69;5039128;27;102988;-74
2022/07/31 06:27:58;;;;;;;;;;;;;;;20.99;65.94;98903.09;5024684;27;103425;-74
2022/07/31 06:30:32;;;;;;;;;;;;;;;21.12;66.39;98908.78;5046120;27;103611;-74
2022/07/31 06:33:00;;;;;;;;;;;;;;;21.33;66.04;98900.97;5028551;27;103112;-74
2022/07/31 06:35:35;;;;;;;;;;;;;;;21.47;66.10;98912.03;5030726;27;102614;-74
2022/07/31 06:38:23;;;;;;;;;;;;;;;21.63;64.07;98909.25;5033475;27;102959;-74
2022/07/31 06:41:09;;;;;;;;;;;;;;;21.78;64.33;98904.81;5032154;27;103508;-74
2022/07/31 06:43:47;;;;;;;;;;;;;;;21.90;63.48;98909.63;5029419;27;103017;-74
2022/07/31 06:46:35;;;;;;;;;;;;;;;21.69;64.86;98908.56;5034593;27;102706;-74
2022/07/31 06:49:30;;;;;;;;;;;;;;;21.70;63.81;98910.22;5040022;27;102797;-78
2022/07/31 06:52:00;;;;;;;;;;;;;;;21.81;63.89;98915.22;5040149;27;103747;-75
2022/07/31 06:54:32;;;;;;;;;;;;;;;21.91;63.67;98905.09;5028739;27;104734;-76
2022/07/31 06:57:00;;;;;;;;;;;;;;;22.09;63.77;98913.72;5032848;27;103027;-75
2022/07/31 06:59:28;;;;;;;;;;;;;;;22.05;63.35;98923.16;5038768;27;102604;-75
2022/07/31 07:02:09;;;;;;;;;;;;;;;22.04;64.35;98909.88;5035492;27;103364;-75
2022/07/31 07:04:36;;;;;;;;;;;;;;;22.20;62.59;98902.56;5027755;27;103214;-75
2022/07/31 07:07:24;;;;;;;;;;;;;;;22.26;62.54;98904.50;5026584;27;103906;-75
2022/07/31 07:09:59;;;;;;;;;;;;;;;22.28;62.72;98897.13;5030939;27;103817;-76
2022/07/31 07:12:45;;;;;;;;;;;;;;;22.62;62.65;98891.28;5032753;27;104237;-75
2022/07/31 07:15:16;;;;;;;;;;;;;;;22.61;61.72;98896.81;5031373;27;103111;-76
2022/07/31 07:17:45;;;;;;;;;;;;;;;22.76;62.64;98895.88;5026818;27;102658;-75
2022/07/31 07:20:18;;;;;;;;;;;;;;;22.90;62.16;98886.97;5036421;27;104563;-75
2022/07/31 07:22:46;;;;;;;;;;;;;;;22.98;60.84;98886.06;5030808;27;103895;-75
2022/07/31 07:25:26;;;;;;;;;;;;;;;23.32;60.07;98885.50;5048550;27;102871;-75
2022/07/31 07:27:57;;;;;;;;;;;;;;;23.50;59.91;98889.50;5033249;27;103081;-75
2022/07/31 07:30:27;;;;;;;;;;;;;;;23.44;59.94;98884.84;5039901;27;104202;-76
2022/07/31 07:32:59;;;;;;;;;;;;;;;23.83;59.50;98891.75;5029908;27;104028;-76
2022/07/31 07:35:28;;;;;;;;;;;;;;;23.96;57.86;98890.03;5029484;27;104060;-76
2022/07/31 07:38:04;;;;;;;;;;;;;;;23.97;57.72;98890.88;5033577;27;102796;-76
2022/07/31 07:40:32;;;;;;;;;;;;;;;23.78;57.90;98896.88;5029000;27;103100;-75
2022/07/31 07:43:00;;;;;;;;;;;;;;;23.84;57.85;98896.94;5031457;27;103539;-75
2022/07/31 07:45:30;;;;;;;;;;;;;;;24.10;57.30;98896.44;5028477;27;103074;-75
2022/07/31 07:48:00;;;;;;;;;;;;;;;24.24;57.62;98898.25;5034370;27;102541;-75
2022/07/31 07:51:03;;;;;;;;;;;;;;;24.27;56.46;98892.47;5029681;27;103886;-76
2022/07/31 07:53:40;;;;;;;;;;;;;;;24.03;55.62;98895.50;5033299;27;102583;-76
2022/07/31 07:56:27;;;;;;;;;;;;;;;24.36;57.65;98891.31;5030534;27;103028;-75
2022/07/31 07:59:04;;;;;;;;;;;;;;;24.51;55.30;98888.50;5036814;27;102722;-77
2022/07/31 08:02:19;;;;;;;;;;;;;;;24.67;54.09;98888.25;5035463;27;102729;-75
2022/07/31 08:04:49;;;;;;;;;;;;;;;23.12;56.75;98895.16;5037463;27;103120;-76
2022/07/31 08:07:26;;;;;;;;;;;;;;;23.61;56.12;98880.06;5028519;27;104925;-75
2022/07/31 08:10:29;;;;;;;;;;;;;;;24.69;54.71;98881.63;5017250;27;103017;-75
2022/07/31 08:13:11;;;;;;;;;;;;;;;24.99;54.95;98886.84;5036109;27;102648;-75
2022/07/31 08:15:58;;;;;;;;;;;;;;;25.21;53.12;98880.31;5032616;27;104028;-84
2022/07/31 08:18:30;;;;;;;;;;;;;;;25.18;51.51;98888.84;5032171;27;105421;-75
2022/07/31 08:21:00;;;;;;;;;;;;;;;24.60;53.42;98882.78;5049810;27;102626;-75
2022/07/31 08:23:28;;;;;;;;;;;;;;;24.38;52.59;98889.25;5032255;27;103796;-74
2022/07/31 08:25:56;;;;;;;;;;;;;;;24.23;51.61;98889.31;5032767;27;104965;-74
2022/07/31 08:28:25;;;;;;;;;;;;;;;24.95;53.33;98885.56;5044263;27;103253;-74
2022/07/31 08:30:55;;;;;;;;;;;;;;;25.40;51.34;98885.03;5037979;27;103341;-74
2022/07/31 08:33:25;;;;;;;;;;;;;;;25.36;49.62;98881.03;5029256;27;104062;-74
2022/07/31 08:35:57;;;;;;;;;;;;;;;26.09;49.68;98879.44;5046115;27;103255;-73
2022/07/31 08:38:27;;;;;;;;;;;;;;;26.93;47.14;98870.56;5041286;27;103290;-73
2022/07/31 08:41:21;;;;;;;;;;;;;;;27.82;44.96;98870.72;5033545;27;102809;-73
2022/07/31 08:43:49;;;;;;;;;;;;;;;28.25;43.88;98867.34;5036767;27;102592;-72
2022/07/31 08:46:32;;;;;;;;;;;;;;;28.24;44.97;98873.84;5033978;27;103098;-72
2022/07/31 08:49:00;;;;;;;;;;;;;;;28.33;43.59;98865.22;5033296;27;104567;-72
2022/07/31 08:51:29;;;;;;;;;;;;;;;28.93;41.93;98865.56;5035957;27;103422;-72
2022/07/31 08:54:25;;;;;;;;;;;;;;;29.14;41.30;98860.53;5031186;27;103310;-72
2022/07/31 08:56:53;;;;;;;;;;;;;;;29.30;41.88;98865.41;5036226;27;103586;-72
2022/07/31 08:59:21;;;;;;;;;;;;;;;29.36;39.75;98866.41;5040790;27;102828;-73
2022/07/31 09:01:51;;;;;;;;;;;;;;;29.68;40.84;98858.88;5042040;27;102861;-72
2022/07/31 09:04:19;;;;;;;;;;;;;;;29.53;40.23;98861.97;5035811;27;104443;-72
2022/07/31 09:06:47;;;;;;;;;;;;;;;30.06;39.68;98848.53;5042408;27;104289;-72
2022/07/31 09:09:15;;;;;;;;;;;;;;;29.26;40.06;98856.03;5037924;27;103247;-72
2022/07/31 09:11:48;;;;;;;;;;;;;;;28.88;41.27;98851.81;5044287;27;102639;-72
2022/07/31 09:14:35;;;;;;;;;;;;;;;29.73;39.92;98850.84;5037856;27;102760;-72
2022/07/31 09:17:08;;;;;;;;;;;;;;;30.96;38.26;98857.38;5033552;27;103221;-72
2022/07/31 09:19:37;;;;;;;;;;;;;;;30.90;35.64;98841.94;5039488;27;103140;-72
2022/07/31 09:22:29;;;;;;;;;;;;;;;30.79;37.73;98848.22;5035100;27;102999;-72
2022/07/31 09:25:11;;;;;;;;;;;;;;;31.16;38.05;98840.66;5034467;27;102873;-73
2022/07/31 09:27:41;;;;;;;;;;;;;;;31.28;37.33;98834.09;5035071;27;103379;-72
2022/07/31 09:30:10;;;;;;;;;;;;;;;31.41;37.14;98831.06;5030853;27;103057;-72
2022/07/31 09:33:14;;;;;;;;;;;;;;;31.78;36.04;98828.03;5033189;27;102664;-73
2022/07/31 09:36:01;;;;;;;;;;;;;;;32.51;37.05;98834.28;5037035;27;103006;-73
2022/07/31 09:38:34;;;;;;;3.40;2.13;;;;;;;32.64;33.84;98831.28;5044494;27;103096;-72
2022/07/31 09:41:09;;;;;;;2.70;1.95;;;;;;;32.86;34.80;98834.06;5031784;27;103336;-72
2022/07/31 09:44:07;;;;;;;3.37;2.47;;;;;;;32.44;34.67;98822.72;5037082;27;104155;-72
2022/07/31 09:46:40;;;;;;;4.78;3.45;;;;;;;32.05;34.60;98824.50;5025327;27;102991;-73
2022/07/31 09:49:09;;;;;;;4.05;2.60;;;;;;;32.05;34.76;98819.03;5030040;27;103362;-72
2022/07/31 09:51:40;;;;;;;2.08;1.85;;;;;;;31.78;35.20;98812.47;5037261;27;105580;-73
2022/07/31 09:54:20;;;;;;;11.43;10.27;;;;;;;31.96;35.41;98808.72;5035675;27;103555;-74
2022/07/31 09:57:13;;;;;;;2.83;2.63;;;;;;;33.03;34.20;98823.94;5033456;27;103108;-77
2022/07/31 09:59:48;;;;;;;2.38;2.17;;;;;;;32.44;33.50;98806.31;5034216;27;104549;-75
2022/07/31 10:02:19;;;;;;;3.53;2.30;;;;;;;33.37;34.80;98802.78;5039452;27;103233;-77
2022/07/31 10:04:52;;;;;;;2.88;2.10;;;;;;;33.30;33.40;98810.34;5038878;27;102948;-77
2022/07/31 10:07:25;;;;;;;4.07;1.90;;;;;;;32.99;33.42;98798.13;5042506;27;104131;-79
2022/07/31 10:10:06;;;;;;;3.65;1.80;;;;;;;33.65;31.20;98793.56;5031088;27;102932;-79
2022/07/31 10:13:01;;;;;;;2.30;1.60;;;;;;;34.64;30.48;98781.06;5031761;27;103246;-76
2022/07/31 10:15:35;;;;;;;2.30;1.92;;;;;;;33.32;32.19;98789.00;5031971;27;102973;-78
2022/07/31 10:18:39;;;;;;;3.00;2.00;;;;;;;31.41;32.92;98789.34;5019053;27;103189;-73
2022/07/31 10:21:37;;;;;;;2.63;1.80;;;;;;;32.87;31.88;98782.94;5036057;27;102942;-73
2022/07/31 10:24:19;;;;;;;2.20;1.63;;;;;;;33.55;32.00;98768.75;5035818;27;103251;-73
2022/07/31 10:26:56;;;;;;;1.65;1.55;;;;;;;33.26;31.67;98765.41;5029974;27;103058;-73
2022/07/31 10:29:31;;;;;;;2.28;1.80;;;;;;;31.22;33.37;98775.00;5033913;27;102869;-73
2022/07/31 10:32:06;;;;;;;3.40;1.75;;;;;;;31.48;33.87;98774.50;5033585;27;102970;-72
2022/07/31 10:34:38;;;;;;;1.77;1.67;;;;;;;32.34;33.28;98778.78;5037484;27;103343;-73
2022/07/31 10:37:32;;;;;;;2.00;1.58;;;;;;;30.72;33.43;98776.59;5035037;27;102676;-72
2022/07/31 10:40:26;;;;;;;1.70;1.38;;;;;;;31.94;33.38;98772.63;5033300;27;103051;-72
2022/07/31 10:43:17;;;;;;;2.25;1.65;;;;;;;31.93;32.32;98766.31;5025027;27;103365;-72
2022/07/31 10:45:54;;;;;;;2.55;1.50;;;;;;;33.62;30.92;98761.19;5028900;27;103247;-73
2022/07/31 10:48:52;;;;;;;1.60;1.50;;;;;;;34.23;31.21;98759.88;5031330;27;102649;-73
2022/07/31 10:51:48;;;;;;;2.35;1.90;;;;;;;32.33;31.86;98766.22;5036529;27;103111;-73
2022/07/31 10:54:41;;;;;;;2.33;1.40;;;;;;;32.93;32.70;98754.56;5032818;27;103359;-73
2022/07/31 10:57:30;;;;;;;2.60;1.60;;;;;;;33.02;31.40;98753.84;5033628;27;103157;-76
2022/07/31 11:00:19;;;;;;;1.90;1.50;;;;;;;34.16;31.27;98749.13;5033325;27;102869;-74
2022/07/31 11:03:15;;;;;;;1.90;1.70;;;;;;;34.36;32.43;98748.47;5010837;27;103421;-75
2022/07/31 11:06:03;;;;;;;2.75;1.70;;;;;;;34.14;30.46;98742.25;5033254;27;103229;-74
2022/07/31 11:08:53;;;;;;;2.92;1.40;;;;;;;34.37;30.45;98744.66;5032758;27;103096;-74
2022/07/31 11:11:40;;;;;;;3.33;1.80;;;;;;;33.05;30.56;98733.34;5039857;27;102949;-73
2022/07/31 11:14:34;;;;;;;4.28;1.60;;;;;;;33.17;31.20;98734.09;5034833;27;103887;-74
2022/07/31 11:17:31;;;;;;;2.17;1.73;;;;;;;33.61;30.63;98737.63;5033357;27;104487;-71
2022/07/31 11:20:27;;;;;;;3.55;1.70;;;;;;;32.96;31.39;98732.13;5033422;27;103306;-72
2022/07/31 11:23:00;;;;;;;2.20;1.77;;;;;;;32.05;32.07;98731.59;5033074;27;102844;-72
2022/07/31 11:25:29;;;;;;;3.17;1.88;;;;;;;31.13;34.84;98726.53;5035247;27;102834;-78
2022/07/31 11:27:58;;;;;;;1.90;1.53;;;;;;;31.86;32.47;98727.41;5028335;27;103311;-72
2022/07/31 11:30:26;;;;;;;1.95;1.70;;;;;;;32.60;32.21;98718.00;5026713;27;103366;-72
2022/07/31 11:32:53;;;;;;;2.93;1.90;;;;;;;32.17;33.00;98717.84;5030659;27;103498;-73
2022/07/31 11:35:29;;;;;;;2.30;1.90;;;;;;;31.42;34.15;98709.91;5032391;27;102614;-72
2022/07/31 11:37:58;;;;;;;2.13;1.70;;;;;;;33.49;32.08;98715.84;5036080;27;103489;-73
2022/07/31 11:40:27;;;;;;;4.82;1.77;;;;;;;34.46;30.54;98715.66;5033893;27;102965;-72
2022/07/31 11:42:56;;;;;;;2.17;1.42;;;;;;;34.52;30.36;98709.13;5037240;27;102807;-72
2022/07/31 11:45:47;;;;;;;2.00;1.58;;;;;;;35.21;29.57;98695.22;5031680;27;102680;-72
2022/07/31 11:48:20;;;;;;;1.60;1.50;;;;;;;34.81;30.00;98687.59;5036458;27;103176;-71
2022/07/31 11:50:50;;;;;;;2.33;1.58;;;;;;;35.16;30.43;98676.00;5029848;27;103115;-72
2022/07/31 11:53:20;;;;;;;2.03;1.60;;;;;;;35.46;28.99;98681.56;5040573;27;103064;-73
2022/07/31 11:55:50;;;;;;;2.90;1.60;;;;;;;34.16;30.24;98679.81;5034036;27;103915;-72
2022/07/31 11:58:20;;;;;;;2.28;1.52;;;;;;;33.34;31.42;98680.09;5032914;27;103944;-72
2022/07/31 12:00:52;;;;;;;3.72;1.70;;;;;;;33.40;31.05;98681.81;5032574;27;103142;-73
2022/07/31 12:03:25;;;;;;;2.00;1.60;;;;;;;34.13;30.40;98672.09;5034960;27;102928;-73
2022/07/31 12:05:53;;;;;;;2.95;1.80;;;;;;;34.02;31.53;98667.59;5033535;27;102930;-71
2022/07/31 12:08:24;;;;;;;2.75;1.60;;;;;;;33.08;31.21;98675.41;5042811;27;103133;-72
2022/07/31 12:10:53;;;;;;;2.03;1.70;;;;;;;33.67;30.72;98674.44;5036535;27;103207;-73
2022/07/31 12:13:23;;;;;;;1.92;1.60;;;;;;;34.44;30.03;98657.50;5036454;27;102701;-72
2022/07/31 12:15:56;;;;;;;2.10;1.63;;;;;;;34.19;30.72;98663.63;5036704;27;102948;-72
2022/07/31 12:18:25;;;;;;;3.25;1.40;;;;;;;34.59;30.38;98657.59;5032670;27;103451;-74
2022/07/31 12:20:55;;;;;;;3.42;1.77;;;;;;;34.32;30.13;98654.13;5037740;27;102864;-73
2022/07/31 12:23:25;;;;;;;2.78;1.63;;;;;;;33.25;31.14;98659.75;5034584;27;102947;-76
2022/07/31 12:26:10;;;;;;;2.38;1.30;;;;;;;34.25;30.18;98653.53;5035693;27;102787;-76
2022/07/31 12:28:38;;;;;;;2.30;1.70;;;;;;;34.42;29.31;98651.44;5032405;27;103256;-74
2022/07/31 12:31:06;;;;;;;2.17;1.80;;;;;;;33.74;30.56;98655.06;5031403;27;103242;-72
2022/07/31 12:33:41;;;;;;;2.53;1.70;;;;;;;34.02;31.10;98643.78;5035732;27;104035;-72
2022/07/31 12:36:14;;;;;;;3.28;1.80;;;;;;;32.79;32.29;98643.88;5039479;27;102662;-74
2022/07/31 12:38:44;;;;;;;3.40;2.00;;;;;;;32.36;32.74;98650.09;5035493;27;104581;-73
2022/07/31 12:41:16;;;;;;;2.08;1.70;;;;;;;32.88;33.18;98653.25;5038104;27;103176;-74
2022/07/31 12:43:46;;;;;;;3.58;2.00;;;;;;;33.25;32.74;98648.78;5030564;27;102789;-73
2022/07/31 12:46:35;;;;;;;2.97;1.80;;;;;;;33.57;30.90;98633.28;5029094;27;103896;-74
2022/07/31 12:49:04;;;;;;;3.90;1.90;;;;;;;33.37;31.44;98637.69;5037987;27;103322;-73
2022/07/31 12:51:32;;;;;;;2.50;2.00;;;;;;;32.41;32.17;98631.00;5036792;27;103764;-75
2022/07/31 12:54:15;;;;;;;2.60;1.95;;;;;;;34.46;30.12;98636.13;5029116;27;103053;-74
2022/07/31 12:56:44;;;;;;;2.43;1.70;;;;;;;34.73;30.67;98622.28;5029233;27;102755;-74